Time;durP1;ratioP1;P1;durP2;ratioP2;P2;SDS_P1;SDS_P2;PMS_P1;PMS_P2;Temp;Humidity;BMP_temperature;BMP_pressure;BME280_temperature;BME280_humidity;BME280_pressure;Samples;Min_cycle;Max_cycle;Signal;HPM_P1;HPM_P2
2022/02/05 00:01:39;;;;;;;;;;;;;;;;;;5105220;28;19980;-55
2022/02/05 00:04:09;;;;;;;;;;;;;;;;;;5092934;28;19912;-57
2022/02/05 00:06:39;;;;;;;;;;;;;;;;;;5092655;28;20265;-57
2022/02/05 00:09:13;;;;;;;;;;;;;;;;;;5092030;28;19947;-57
2022/02/05 00:14:39;;;;;;;;;;;;;;;;;;5092999;28;19915;-57
2022/02/05 00:44:13;;;;;;;;;;;;;;;;;;5092407;28;19926;-56
2022/02/05 00:46:41;;;;;;;;;;;;;;;;;;5092834;28;20003;-51
2022/02/05 00:49:07;;;;;;;;;;;;;;;;;;5091792;28;19904;-54
2022/02/05 00:51:42;;;;;;;;;;;;;;;;;;5092098;28;20349;-55
2022/02/05 00:54:20;;;;;;;;;;;;;;;;;;5104914;28;19904;-56
2022/02/05 00:59:15;;;;;;;;;;;;;;;;;;5112107;28;19929;-56
2022/02/05 01:01:41;;;;;;;;;;;;;;;;;;5103408;28;20315;-53
2022/02/05 01:04:07;;;;;;;;;;;;;;;;;;5092090;28;19923;-56
2022/02/05 01:06:33;;;;;;;;;;;;;;;;;;5092374;28;20104;-55
2022/02/05 01:08:59;;;;;;;;;;;;;;;;;;5091633;28;19904;-52
2022/02/05 01:11:25;;;;;;;;;;;;;;;;;;5092746;28;20066;-55
2022/02/05 01:13:52;;;;;;;;;;;;;;;;;;5095706;28;20277;-57
2022/02/05 01:16:34;;;;;;;;;;;;;;;;;;5095840;28;19911;-57
2022/02/05 01:19:00;;;;;;;;;;;;;;;;;;5095406;28;19911;-57
2022/02/05 01:21:45;;;;;;;;;;;;;;;;;;5095931;28;19904;-55
2022/02/05 01:24:13;;;;;;;;;;;;;;;;;;5095682;28;20367;-57
2022/02/05 01:26:53;;;;;;;;;;;;;;;;;;5095999;28;19907;-55
2022/02/05 01:29:36;;;;;;;;;;;;;;;;;;5095005;28;20350;-53
2022/02/05 01:32:06;;;;;;;;;;;;;;;;;;5095546;28;20254;-57
2022/02/05 01:34:44;;;;;;;;;;;;;;;;;;5095476;28;19907;-55
2022/02/05 02:11:57;;;;;;;;;;;;;;;;;;5094931;28;19915;-55
2022/02/05 02:22:10;;;;;;;;;;;;;;;;;;5094846;28;20010;-56
2022/02/05 02:32:05;;;;;;;;;;;;;;;;;;5094528;28;19904;-55
2022/02/05 02:34:37;;;;;;;;;;;;;;;;;;5094214;28;19922;-56
2022/02/05 02:37:03;;;;;;;;;;;;;;;;;;5094512;28;20306;-55
2022/02/05 02:39:38;;;;;;;;;;;;;;;;;;5093760;28;19922;-54
2022/02/05 02:42:09;;;;;;;;;;;;;;;;;;5094107;28;20391;-57
2022/02/05 02:44:35;;;;;;;;;;;;;;;;;;5093864;28;20392;-54
2022/02/05 02:47:02;;;;;;;;;;;;;;;;;;5094294;28;20022;-54
2022/02/05 02:49:51;;;;;;;;;;;;;;;;;;5093505;28;19990;-53
2022/02/05 02:57:53;;;;;;;;;;;;;;;;;;5113749;28;20360;-55
2022/02/05 03:00:18;;;;;;;;;;;;;;;;;;5114301;28;20006;-56
2022/02/05 03:02:44;;;;;;;;;;;;;;;;;;5094543;28;20003;-56
2022/02/05 03:05:10;;;;;;;;;;;;;;;;;;5093987;28;20388;-55
2022/02/05 03:07:36;;;;;;;;;;;;;;;;;;5093945;28;19912;-56
2022/02/05 03:10:02;;;;;;;;;;;;;;;;;;5092967;28;19908;-55
2022/02/05 03:12:28;;;;;;;;;;;;;;;;;;5093856;28;19904;-55
2022/02/05 03:14:54;;;;;;;;;;;;;;;;;;5093485;28;20019;-55
2022/02/05 03:17:22;;;;;;;;;;;;;;;;;;5094007;28;20295;-54
2022/02/05 03:19:48;;;;;;;;;;;;;;;;;;5093042;28;19904;-57
2022/02/05 03:22:14;;;;;;;;;;;;;;;;;;5093624;28;19927;-53
2022/02/05 03:24:40;;;;;;;;;;;;;;;;;;5093498;28;19954;-57
2022/02/05 03:27:07;;;;;;;;;;;;;;;;;;5093895;28;19908;-56
2022/02/05 03:29:33;;;;;;;;;;;;;;;;;;5092593;28;20351;-55
2022/02/05 03:31:59;;;;;;;;;;;;;;;;;;5093092;28;19904;-55
2022/02/05 03:34:25;;;;;;;;;;;;;;;;;;5092967;28;19965;-56
2022/02/05 03:36:50;;;;;;;;;;;;;;;;;;5093581;28;19904;-55
2022/02/05 03:39:16;;;;;;;;;;;;;;;;;;5092645;28;19904;-53
2022/02/05 03:41:42;;;;;;;;;;;;;;;;;;5093242;28;19915;-57
2022/02/05 03:44:08;;;;;;;;;;;;;;;;;;5093121;28;19962;-52
2022/02/05 03:46:34;;;;;;;;;;;;;;;;;;5092843;28;19908;-56
2022/02/05 03:49:00;;;;;;;;;;;;;;;;;;5092614;28;20019;-54
2022/02/05 03:51:26;;;;;;;;;;;;;;;;;;5093296;28;19903;-55
2022/02/05 03:53:52;;;;;;;;;;;;;;;;;;5102913;28;19907;-57
2022/02/05 03:56:17;;;;;;;;;;;;;;;;;;5113309;28;19920;-57
2022/02/05 03:58:43;;;;;;;;;;;;;;;;;;5112660;28;19904;-57
2022/02/05 04:01:09;;;;;;;;;;;;;;;;;;5108667;28;20058;-56
2022/02/05 04:03:35;;;;;;;;;;;;;;;;;;5092954;28;20273;-57
2022/02/05 04:06:01;;;;;;;;;;;;;;;;;;5092820;28;19959;-57
2022/02/05 04:08:27;;;;;;;;;;;;;;;;;;5092094;28;19912;-57
2022/02/05 04:11:04;;;;;;;;;;;;;;;;;;5093281;28;19904;-57
2022/02/05 04:16:22;;;;;;;;;;;;;;;;;;5092613;28;19950;-55
2022/02/05 04:18:48;;;;;;;;;;;;;;;;;;5092102;28;20192;-56
2022/02/05 04:21:14;;;;;;;;;;;;;;;;;;5092799;28;19904;-56
2022/02/05 04:23:39;;;;;;;;;;;;;;;;;;5092805;28;19951;-56
2022/02/05 04:26:05;;;;;;;;;;;;;;;;;;5092364;28;20297;-56
2022/02/05 04:28:31;;;;;;;;;;;;;;;;;;5091989;28;19970;-57
2022/02/05 04:30:57;;;;;;;;;;;;;;;;;;5087458;28;19956;-57
2022/02/05 04:33:23;;;;;;;;;;;;;;;;;;5092524;28;20356;-51
2022/02/05 04:35:49;;;;;;;;;;;;;;;;;;5092410;28;20006;-56
2022/02/05 04:38:16;;;;;;;;;;;;;;;;;;5091922;28;19911;-57
2022/02/05 04:40:50;;;;;;;;;;;;;;;;;;5092162;28;19912;-57
2022/02/05 04:43:51;;;;;;;;;;;;;;;;;;5092609;28;19904;-57
2022/02/05 04:51:35;;;;;;;;;;;;;;;;;;5096378;28;19973;-57
2022/02/05 04:56:39;;;;;;;;;;;;;;;;;;5095852;28;19915;-56
2022/02/05 05:04:44;;;;;;;;;;;;;;;;;;5096149;28;19949;-56
2022/02/05 05:20:09;;;;;;;;;;;;;;;;;;5075190;28;19942;-57
2022/02/05 05:22:35;;;;;;;;;;;;;;;;;;5075675;28;19908;-57
2022/02/05 05:25:01;;;;;;;;;;;;;;;;;;5095676;28;19919;-55
2022/02/05 05:27:26;;;;;;;;;;;;;;;;;;5095887;28;19998;-55
2022/02/05 05:29:52;;;;;;;;;;;;;;;;;;5095182;28;19904;-57
2022/02/05 05:32:18;;;;;;;;;;;;;;;;;;5095704;28;19908;-57
2022/02/05 05:34:44;;;;;;;;;;;;;;;;;;5095191;28;20004;-57
2022/02/05 05:37:10;;;;;;;;;;;;;;;;;;5090339;28;20324;-57
2022/02/05 05:39:38;;;;;;;;;;;;;;;;;;5075040;28;19940;-56
2022/02/05 05:42:07;;;;;;;;;;;;;;;;;;5075302;28;20006;-55
2022/02/05 05:49:59;;;;;;;;;;;;;;;;;;5074462;28;19958;-54
2022/02/05 05:52:25;;;;;;;;;;;;;;;;;;5084203;28;19946;-55
2022/02/05 05:54:51;;;;;;;;;;;;;;;;;;5113618;28;20039;-57
2022/02/05 05:57:17;;;;;;;;;;;;;;;;;;5115370;28;19904;-53
2022/02/05 05:59:43;;;;;;;;;;;;;;;;;;5114766;28;19966;-56
2022/02/05 06:02:09;;;;;;;;;;;;;;;;;;5102367;28;19965;-54
2022/02/05 06:04:35;;;;;;;;;;;;;;;;;;5094815;28;19907;-56
2022/02/05 06:07:00;;;;;;;;;;;;;;;;;;5094188;28;19912;-56
2022/02/05 06:09:26;;;;;;;;;;;;;;;;;;5094398;28;19915;-57
2022/02/05 06:11:52;;;;;;;;;;;;;;;;;;5094901;28;20405;-55
2022/02/05 06:14:27;;;;;;;;;;;;;;;;;;5094768;28;19904;-55
2022/02/05 06:16:59;;;;;;;;;;;;;;;;;;5094962;28;19904;-55
2022/02/05 06:19:25;;;;;;;;;;;;;;;;;;5089494;28;19919;-53
2022/02/05 06:21:51;;;;;;;;;;;;;;;;;;5074419;28;19908;-56
2022/02/05 06:24:17;;;;;;;;;;;;;;;;;;5074408;28;19915;-56
2022/02/05 06:26:42;;;;;;;;;;;;;;;;;;5074364;28;19909;-57
2022/02/05 06:29:08;;;;;;;;;;;;;;;;;;5073671;28;19911;-56
2022/02/05 06:31:34;;;;;;;;;;;;;;;;;;5074357;28;19905;-57
2022/02/05 06:34:00;;;;;;;;;;;;;;;;;;5077061;28;19912;-57
2022/02/05 06:36:26;;;;;;;;;;;;;;;;;;5094288;28;20022;-53
2022/02/05 06:38:52;;;;;;;;;;;;;;;;;;5093803;28;20049;-57
2022/02/05 06:41:18;;;;;;;;;;;;;;;;;;5088127;28;20350;-54
2022/02/05 06:43:43;;;;;;;;;;;;;;;;;;5074453;28;19909;-57
2022/02/05 06:46:09;;;;;;;;;;;;;;;;;;5074036;28;20426;-57
2022/02/05 06:48:35;;;;;;;;;;;;;;;;;;5073248;28;19909;-56
2022/02/05 06:51:01;;;;;;;;;;;;;;;;;;5073837;28;19912;-56
2022/02/05 06:53:27;;;;;;;;;;;;;;;;;;5086766;28;20264;-55
2022/02/05 06:55:53;;;;;;;;;;;;;;;;;;5114284;28;19904;-57
2022/02/05 06:58:19;;;;;;;;;;;;;;;;;;5113945;28;20001;-57
2022/02/05 07:00:44;;;;;;;;;;;;;;;;;;5113439;28;20275;-56
2022/02/05 07:03:16;;;;;;;;;;;;;;;;;;5093175;28;19961;-55
2022/02/05 07:05:42;;;;;;;;;;;;;;;;;;5093629;28;19915;-56
2022/02/05 07:08:07;;;;;;;;;;;;;;;;;;5093218;28;19950;-54
2022/02/05 07:10:33;;;;;;;;;;;;;;;;;;5087828;28;19995;-55
2022/02/05 07:13:15;;;;;;;;;;;;;;;;;;5073827;28;20405;-56
2022/02/05 07:15:49;;;;;;;;;;;;;;;;;;5073412;28;20018;-54
2022/02/05 07:18:26;;;;;;;;;;;;;;;;;;5087928;28;20280;-57
2022/02/05 07:31:40;;;;;;;;;;;;;;;;;;5072800;28;19995;-57
2022/02/05 07:34:06;;;;;;;;;;;;;;;;;;5073219;28;19904;-58
2022/02/05 07:36:32;;;;;;;;;;;;;;;;;;5072799;28;19916;-57
2022/02/05 07:38:58;;;;;;;;;;;;;;;;;;5072403;28;19904;-56
2022/02/05 07:41:24;;;;;;;;;;;;;;;;;;5079746;28;19961;-56
2022/02/05 07:43:50;;;;;;;;;;;;;;;;;;5088704;28;19920;-57
2022/02/05 07:46:15;;;;;;;;;;;;;;;;;;5072569;28;19928;-54
2022/02/05 07:48:41;;;;;;;;;;;;;;;;;;5072313;28;20338;-56
2022/02/05 07:51:07;;;;;;;;;;;;;;;;;;5072693;28;19990;-56
2022/02/05 07:53:33;;;;;;;;;;;;;;;;;;5087324;28;19910;-56
2022/02/05 07:55:59;;;;;;;;;;;;;;;;;;5099041;28;19908;-57
2022/02/05 07:58:25;;;;;;;;;;;;;;;;;;5092094;28;19927;-56
2022/02/05 08:00:52;;;;;;;;;;;;;;;;;;5092769;28;20354;-55
2022/02/05 08:03:18;;;;;;;;;;;;;;;;;;5081695;28;19908;-58
2022/02/05 08:05:43;;;;;;;;;;;;;;;;;;5092761;28;19919;-58
2022/02/05 08:08:13;;;;;;;;;;;;;;;;;;5091980;28;19962;-57
2022/02/05 08:10:48;;;;;;;;;;;;;;;;;;5092695;28;20357;-58
2022/02/05 08:13:14;;;;;;;;;;;;;;;;;;5092424;28;19972;-53
2022/02/05 08:15:40;;;;;;;;;;;;;;;;;;5091764;28;19905;-56
2022/02/05 08:18:06;;;;;;;;;;;;;;;;;;5085541;28;19955;-57
2022/02/05 08:20:32;;;;;;;;;;;;;;;;;;5080642;28;20392;-56
2022/02/05 08:22:58;;;;;;;;;;;;;;;;;;5071703;28;19932;-57
2022/02/05 08:25:24;;;;;;;;;;;;;;;;;;5072500;28;20353;-57
2022/02/05 08:27:50;;;;;;;;;;;;;;;;;;5083912;28;19957;-57
2022/02/05 08:30:16;;;;;;;;;;;;;;;;;;5088088;28;19907;-57
2022/02/05 08:32:44;;;;;;;;;;;;;;;;;;5080599;28;19919;-54
2022/02/05 08:35:10;;;;;;;;;;;;;;;;;;5090907;28;19919;-58
2022/02/05 08:37:36;;;;;;;;;;;;;;;;;;5092490;28;19904;-57
2022/02/05 08:40:02;;;;;;;;;;;;;;;;;;5089261;28;20326;-58
2022/02/05 08:42:28;;;;;;;;;;;;;;;;;;5092167;28;19904;-57
2022/02/05 08:44:54;;;;;;;;;;;;;;;;;;5092512;28;20365;-58
2022/02/05 08:47:19;;;;;;;;;;;;;;;;;;5092440;28;19939;-59
2022/02/05 08:49:45;;;;;;;;;;;;;;;;;;5091920;28;20269;-58
2022/02/05 08:52:12;;;;;;;;;;;;;;;;;;5092107;28;19908;-58
2022/02/05 08:54:38;;;;;;;;;;;;;;;;;;5095008;28;20022;-57
2022/02/05 08:57:04;;;;;;;;;;;;;;;;;;5071979;28;19951;-57
2022/02/05 08:59:40;;;;;;;;;;;;;;;;;;5071373;28;19905;-59
2022/02/05 09:02:14;;;;;;;;;;;;;;;;;;5084124;28;20421;-57
2022/02/05 09:07:11;;;;;;;;;;;;;;;;;;5090837;28;19988;-57
2022/02/05 09:12:32;;;;;;;;;;;;;;;;;;5092295;28;19911;-57
2022/02/05 09:14:58;;;;;;;;;;;;;;;;;;5076792;28;20369;-56
2022/02/05 09:17:23;;;;;;;;;;;;;;;;;;5071972;28;19905;-56
2022/02/05 09:19:50;;;;;;;;;;;;;;;;;;5071842;28;19944;-56
2022/02/05 09:22:16;;;;;;;;;;;;;;;;;;5071790;28;20346;-57
2022/02/05 09:24:42;;;;;;;;;;;;;;;;;;5071810;28;19916;-56
2022/02/05 09:27:11;;;;;;;;;;;;;;;;;;5071931;28;20301;-58
2022/02/05 09:29:45;;;;;;;;;;;;;;;;;;5091288;28;19977;-58
2022/02/05 09:32:11;;;;;;;;;;;;;;;;;;5084974;28;19920;-56
2022/02/05 09:34:37;;;;;;;;;;;;;;;;;;5077368;28;19912;-54
2022/02/05 09:37:02;;;;;;;;;;;;;;;;;;5095903;28;19918;-57
2022/02/05 09:39:28;;;;;;;;;;;;;;;;;;5094895;28;19911;-58
2022/02/05 09:41:54;;;;;;;;;;;;;;;;;;5093824;28;20390;-55
2022/02/05 09:44:20;;;;;;;;;;;;;;;;;;5095342;28;20427;-57
2022/02/05 09:46:46;;;;;;;;;;;;;;;;;;5095329;28;19994;-57
2022/02/05 09:49:14;;;;;;;;;;;;;;;;;;5094910;28;19919;-57
2022/02/05 09:51:46;;;;;;;;;;;;;;;;;;5095548;28;20254;-57
2022/02/05 09:54:12;;;;;;;;;;;;;;;;;;5107187;28;20343;-57
2022/02/05 09:56:40;;;;;;;;;;;;;;;;;;5094613;28;19908;-58
2022/02/05 09:59:06;;;;;;;;;;;;;;;;;;5094894;28;19948;-56
2022/02/05 10:01:33;;;;;;;;;;;;;;;;;;5094221;28;19908;-56
2022/02/05 10:03:59;;;;;;;;;;;;;;;;;;5095261;28;19908;-57
2022/02/05 10:06:28;;;;;;;;;;;;;;;;;;5087067;28;19916;-55
2022/02/05 10:08:54;;;;;;;;;;;;;;;;;;5074048;28;19959;-56
2022/02/05 10:11:20;;;;;;;;;;;;;;;;;;5074890;28;19904;-55
2022/02/05 10:13:45;;;;;;;;;;;;;;;;;;5079801;28;20273;-58
2022/02/05 10:16:11;;;;;;;;;;;;;;;;;;5094151;28;19916;-57
2022/02/05 10:18:37;;;;;;;;;;;;;;;;;;5074156;28;20003;-57
2022/02/05 10:21:03;;;;;;;;;;;;;;;;;;5074828;28;19904;-53
2022/02/05 10:23:29;;;;;;;;;;;;;;;;;;5074462;28;19930;-55
2022/02/05 10:25:55;;;;;;;;;;;;;;;;;;5074216;28;19915;-57
2022/02/05 10:28:21;;;;;;;;;;;;;;;;;;5082989;28;19912;-57
2022/02/05 10:30:48;;;;;;;;;;;;;;;;;;5094472;28;19957;-58
2022/02/05 10:33:20;;;;;;;;;;;;;;;;;;5094571;28;19904;-56
2022/02/05 10:36:13;;;;;;;;;;;;;;;;;;5094491;28;20250;-58
2022/02/05 10:42:59;;;;;;;;;;;;;;;;;;5094271;28;20250;-57
2022/02/05 10:43:47;;;;;;;;;;;;;;;;;;5091719;28;20281;-57
2022/02/05 10:46:13;;;;;;;;;;;;;;;;;;5093949;28;19908;-57
2022/02/05 10:48:38;;;;;;;;;;;;;;;;;;5093121;28;20289;-56
2022/02/05 10:51:04;;;;;;;;;;;;;;;;;;5094546;28;19913;-56
2022/02/05 11:06:35;;;;;;;;;;;;;;;;;;5093822;28;19914;-56
2022/02/05 11:09:01;;;;;;;;;;;;;;;;;;5093528;28;20355;-54
2022/02/05 11:12:04;;;;;;;;;;;;;;;;;;5092930;28;19908;-56
2022/02/05 11:19:54;;;;;;;;;;;;;;;;;;5092969;28;20492;-56
2022/02/05 11:22:20;;;;;;;;;;;;;;;;;;5093607;28;19970;-58
2022/02/05 11:24:46;;;;;;;;;;;;;;;;;;5087881;28;20429;-56
2022/02/05 11:27:12;;;;;;;;;;;;;;;;;;5073143;28;19908;-54
2022/02/05 11:29:38;;;;;;;;;;;;;;;;;;5072387;28;19901;-56
2022/02/05 11:32:04;;;;;;;;;;;;;;;;;;5073123;28;19904;-55
2022/02/05 11:34:30;;;;;;;;;;;;;;;;;;5072760;28;20387;-56
2022/02/05 11:36:56;;;;;;;;;;;;;;;;;;5073293;28;19904;-57
2022/02/05 11:39:21;;;;;;;;;;;;;;;;;;5081501;28;19934;-56
2022/02/05 11:41:47;;;;;;;;;;;;;;;;;;5093334;28;19908;-57
2022/02/05 11:44:14;;;;;;;;;;;;;;;;;;5093040;28;19939;-52
2022/02/05 11:46:40;;;;;;;;;;;;;;;;;;5093092;28;20002;-54
2022/02/05 11:49:06;;;;;;;;;;;;;;;;;;5085590;28;20409;-53
2022/02/05 11:51:32;;;;;;;;;;;;;;;;;;5079552;28;19999;-54
2022/02/05 11:56:24;;;;;;;;;;;;;;;;;;5089832;28;19908;-53
2022/02/05 11:58:49;;;;;;;;;;;;;;;;;;5089823;28;19908;-52
2022/02/05 12:01:15;;;;;;;;;;;;;;;;;;5085168;28;19908;-55
2022/02/05 12:03:41;;;;;;;;;;;;;;;;;;5080001;28;19935;-52
2022/02/05 12:06:07;;;;;;;;;;;;;;;;;;5081707;28;19916;-56
2022/02/05 12:08:33;;;;;;;;;;;;;;;;;;5084121;28;20249;-56
2022/02/05 12:11:01;;;;;;;;;;;;;;;;;;5086099;28;20434;-51
2022/02/05 12:13:29;;;;;;;;;;;;;;;;;;5082580;28;19908;-52
2022/02/05 12:15:55;;;;;;;;;;;;;;;;;;5080361;28;19908;-56
2022/02/05 12:18:24;;;;;;;;;;;;;;;;;;5088225;28;19928;-54
2022/02/05 12:20:51;;;;;;;;;;;;;;;;;;5085236;28;20329;-56
2022/02/05 12:25:43;;;;;;;;;;;;;;;;;;5073730;28;19916;-50
2022/02/05 12:28:09;;;;;;;;;;;;;;;;;;5085590;28;19912;-55
2022/02/05 12:30:38;;;;;;;;;;;;;;;;;;5089633;28;19954;-52
2022/02/05 12:33:04;;;;;;;;;;;;;;;;;;5090534;28;19908;-55
2022/02/05 12:35:30;;;;;;;;;;;;;;;;;;5082274;28;19966;-56
2022/02/05 12:37:56;;;;;;;;;;;;;;;;;;5073792;28;19981;-55
2022/02/05 12:40:22;;;;;;;;;;;;;;;;;;5081011;28;19936;-52
2022/02/05 12:42:48;;;;;;;;;;;;;;;;;;5073977;28;19962;-51
2022/02/05 12:45:18;;;;;;;;;;;;;;;;;;5074092;28;20362;-51
2022/02/05 12:47:44;;;;;;;;;;;;;;;;;;5072539;28;19912;-51
2022/02/05 12:50:14;;;;;;;;;;;;;;;;;;5077982;28;19915;-52
2022/02/05 12:52:40;;;;;;;;;;;;;;;;;;5090891;28;20357;-52
2022/02/05 12:55:13;;;;;;;;;;;;;;;;;;5081256;28;19943;-54
2022/02/05 12:57:44;;;;;;;;;;;;;;;;;;5086547;28;19908;-52
2022/02/05 13:00:11;;;;;;;;;;;;;;;;;;5077532;28;19979;-55
2022/02/05 13:02:37;;;;;;;;;;;;;;;;;;5089253;28;19907;-55
2022/02/05 13:05:03;;;;;;;;;;;;;;;;;;5077714;28;19919;-52
2022/02/05 13:07:29;;;;;;;;;;;;;;;;;;5072783;28;19916;-51
2022/02/05 13:09:57;;;;;;;;;;;;;;;;;;5080318;28;19998;-54
2022/02/05 13:12:24;;;;;;;;;;;;;;;;;;5075517;28;20014;-49
2022/02/05 13:14:52;;;;;;;;;;;;;;;;;;5089389;28;20346;-50
2022/02/05 13:17:17;;;;;;;;;;;;;;;;;;5082599;28;19951;-54
2022/02/05 13:20:01;;;;;;;;;;;;;;;;;;5085340;28;19915;-52
2022/02/05 13:25:32;;;;;;;;;;;;;;;;;;5092594;28;19968;-53
2022/02/05 13:33:36;;;;;;;;;;;;;;;;;;5083665;28;19915;-53
2022/02/05 13:38:50;;;;;;;;;;;;;;;;;;5084083;28;19916;-57
2022/02/05 13:41:16;;;;;;;;;;;;;;;;;;5094120;28;19915;-55
2022/02/05 13:43:44;;;;;;;;;;;;;;;;;;5082396;28;19908;-55
2022/02/05 13:46:10;;;;;;;;;;;;;;;;;;5086923;28;20000;-53
2022/02/05 13:48:36;;;;;;;;;;;;;;;;;;5080678;28;19926;-54
2022/02/05 13:51:02;;;;;;;;;;;;;;;;;;5075987;28;19916;-56
2022/02/05 13:53:27;;;;;;;;;;;;;;;;;;5080469;28;20330;-52
2022/02/05 13:55:53;;;;;;;;;;;;;;;;;;5090092;28;19908;-53
2022/02/05 13:58:19;;;;;;;;;;;;;;;;;;5087427;28;19948;-54
2022/02/05 14:00:45;;;;;;;;;;;;;;;;;;5086410;28;19908;-51
2022/02/05 14:03:11;;;;;;;;;;;;;;;;;;5086288;28;19916;-56
2022/02/05 14:05:37;;;;;;;;;;;;;;;;;;5082684;28;20324;-56
2022/02/05 14:08:03;;;;;;;;;;;;;;;;;;5083789;28;19912;-56
2022/02/05 14:10:31;;;;;;;;;;;;;;;;;;5081021;28;19931;-51
2022/02/05 14:12:57;;;;;;;;;;;;;;;;;;5085004;28;20344;-52
2022/02/05 14:15:23;;;;;;;;;;;;;;;;;;5078095;28;20015;-54
2022/02/05 14:17:49;;;;;;;;;;;;;;;;;;5085785;28;20055;-55
2022/02/05 14:20:15;;;;;;;;;;;;;;;;;;5075061;28;20313;-54
2022/02/05 14:22:43;;;;;;;;;;;;;;;;;;5086054;28;19919;-54
2022/02/05 14:25:13;;;;;;;;;;;;;;;;;;5091674;28;19912;-55
2022/02/05 14:27:42;;;;;;;;;;;;;;;;;;5088299;28;19913;-54
2022/02/05 14:30:12;;;;;;;;;;;;;;;;;;5073619;28;20279;-57
2022/02/05 14:32:46;;;;;;;;;;;;;;;;;;5087881;28;19939;-55
2022/02/05 14:35:34;;;;;;;;;;;;;;;;;;5091324;28;19960;-54
2022/02/05 14:40:46;;;;;;;;;;;;;;;;;;5093577;28;19915;-57
2022/02/05 14:43:12;;;;;;;;;;;;;;;;;;5076648;28;19911;-56
2022/02/05 14:45:38;;;;;;;;;;;;;;;;;;5092339;28;20281;-54
2022/02/05 14:48:03;;;;;;;;;;;;;;;;;;5084180;28;19908;-57
2022/02/05 14:50:29;;;;;;;;;;;;;;;;;;5073942;28;19995;-55
2022/02/05 14:52:55;;;;;;;;;;;;;;;;;;5091160;28;19926;-57
2022/02/05 14:55:21;;;;;;;;;;;;;;;;;;5077318;28;20374;-56
2022/02/05 14:57:47;;;;;;;;;;;;;;;;;;5091733;28;19977;-55
2022/02/05 15:00:13;;;;;;;;;;;;;;;;;;5086390;28;19912;-55
2022/02/05 15:02:39;;;;;;;;;;;;;;;;;;5093155;28;19947;-57
2022/02/05 15:05:11;;;;;;;;;;;;;;;;;;5074613;28;19909;-57
2022/02/05 15:07:37;;;;;;;;;;;;;;;;;;5077645;28;19911;-55
2022/02/05 15:10:03;;;;;;;;;;;;;;;;;;5092208;28;19991;-57
2022/02/05 15:12:29;;;;;;;;;;;;;;;;;;5082211;28;19954;-56
2022/02/05 15:14:55;;;;;;;;;;;;;;;;;;5082658;28;19904;-55
2022/02/05 15:17:22;;;;;;;;;;;;;;;;;;5076947;28;20267;-54
2022/02/05 15:19:47;;;;;;;;;;;;;;;;;;5082905;28;19944;-56
2022/02/05 15:22:13;;;;;;;;;;;;;;;;;;5081375;28;19939;-54
2022/02/05 15:24:39;;;;;;;;;;;;;;;;;;5080637;28;19908;-53
2022/02/05 15:27:07;;;;;;;;;;;;;;;;;;5087054;28;19919;-52
2022/02/05 15:29:33;;;;;;;;;;;;;;;;;;5089514;28;19908;-55
2022/02/05 15:31:59;;;;;;;;;;;;;;;;;;5073432;28;20384;-55
2022/02/05 15:34:25;;;;;;;;;;;;;;;;;;5070573;28;19912;-60
2022/02/05 15:37:05;;;;;;;;;;;;;;;;;;5083479;28;20297;-54
2022/02/05 15:45:02;;;;;;;;;;;;;;;;;;5081834;28;20429;-56
2022/02/05 15:47:28;;;;;;;;;;;;;;;;;;5109734;28;19977;-53
2022/02/05 15:49:54;;;;;;;;;;;;;;;;;;5111424;28;20368;-57
2022/02/05 15:52:20;;;;;;;;;;;;;;;;;;5112647;28;19907;-55
2022/02/05 15:54:47;;;;;;;;;;;;;;;;;;5077278;28;19908;-53
2022/02/05 16:02:10;;;;;;;;;;;;;;;;;;5092173;28;20342;-55
2022/02/05 16:04:36;;;;;;;;;;;;;;;;;;5092071;28;20010;-54
2022/02/05 16:07:01;;;;;;;;;;;;;;;;;;5092246;28;20021;-56
2022/02/05 16:09:27;;;;;;;;;;;;;;;;;;5091547;28;19953;-56
2022/02/05 16:11:53;;;;;;;;;;;;;;;;;;5092025;28;19911;-56
2022/02/05 16:14:19;;;;;;;;;;;;;;;;;;5078832;28;20357;-55
2022/02/05 16:16:45;;;;;;;;;;;;;;;;;;5071845;28;19915;-54
2022/02/05 16:19:11;;;;;;;;;;;;;;;;;;5071218;28;19908;-56
2022/02/05 16:21:37;;;;;;;;;;;;;;;;;;5071660;28;19953;-57
2022/02/05 16:24:04;;;;;;;;;;;;;;;;;;5081828;28;19908;-56
2022/02/05 16:26:29;;;;;;;;;;;;;;;;;;5091729;28;19908;-56
2022/02/05 16:28:55;;;;;;;;;;;;;;;;;;5090583;28;19999;-56
2022/02/05 16:31:21;;;;;;;;;;;;;;;;;;5090243;28;19904;-57
2022/02/05 16:33:47;;;;;;;;;;;;;;;;;;5082759;28;20234;-57
2022/02/05 16:36:19;;;;;;;;;;;;;;;;;;5034575;28;1068906;-54
2022/02/05 16:38:50;;;;;;;;;;;;;;;;;;5078603;28;19912;-53
2022/02/05 16:41:16;;;;;;;;;;;;;;;;;;5090825;28;19954;-56
2022/02/05 16:43:42;;;;;;;;;;;;;;;;;;5082353;28;19970;-54
2022/02/05 16:46:09;;;;;;;;;;;;;;;;;;5080797;28;19924;-52
2022/02/05 16:48:35;;;;;;;;;;;;;;;;;;5095034;28;19915;-52
2022/02/05 16:51:01;;;;;;;;;;;;;;;;;;5085047;28;19917;-53
2022/02/05 16:53:27;;;;;;;;;;;;;;;;;;5086201;28;19926;-54
2022/02/05 16:55:52;;;;;;;;;;;;;;;;;;5081678;28;20350;-54
2022/02/05 16:58:18;;;;;;;;;;;;;;;;;;5090372;28;19969;-56
2022/02/05 17:00:44;;;;;;;;;;;;;;;;;;5083769;28;20405;-55
2022/02/05 17:03:10;;;;;;;;;;;;;;;;;;5091811;28;19915;-55
2022/02/05 17:05:41;;;;;;;;;;;;;;;;;;5082520;28;20015;-54
2022/02/05 17:08:09;;;;;;;;;;;;;;;;;;5075509;28;19912;-55
2022/02/05 17:10:35;;;;;;;;;;;;;;;;;;5086327;28;19907;-56
2022/02/05 17:13:01;;;;;;;;;;;;;;;;;;5085438;28;20444;-55
2022/02/05 17:15:27;;;;;;;;;;;;;;;;;;5087652;28;19987;-54
2022/02/05 17:18:08;;;;;;;;;;;;;;;;;;5084025;28;19908;-55
2022/02/05 17:20:40;;;;;;;;;;;;;;;;;;5089064;28;19918;-53
2022/02/05 17:23:06;;;;;;;;;;;;;;;;;;5093886;28;19927;-56
2022/02/05 17:25:34;;;;;;;;;;;;;;;;;;5084859;28;19921;-55
2022/02/05 17:28:00;;;;;;;;;;;;;;;;;;5078718;28;20350;-55
2022/02/05 17:30:25;;;;;;;;;;;;;;;;;;5091898;28;19966;-57
2022/02/05 17:32:52;;;;;;;;;;;;;;;;;;5086702;28;19965;-56
2022/02/05 17:35:20;;;;;;;;;;;;;;;;;;5082847;28;20311;-55
2022/02/05 17:37:46;;;;;;;;;;;;;;;;;;5087702;28;19908;-58
2022/02/05 17:40:12;;;;;;;;;;;;;;;;;;5081641;28;19908;-56
2022/02/05 17:42:38;;;;;;;;;;;;;;;;;;5090020;28;20416;-54
2022/02/05 17:45:04;;;;;;;;;;;;;;;;;;5090480;28;19916;-58
2022/02/05 17:47:30;;;;;;;;;;;;;;;;;;5079773;28;20045;-56
2022/02/05 17:49:56;;;;;;;;;;;;;;;;;;5082679;28;20370;-55
2022/02/05 17:52:22;;;;;;;;;;;;;;;;;;5083793;28;19915;-57
2022/02/05 17:54:48;;;;;;;;;;;;;;;;;;5105573;28;19920;-57
2022/02/05 17:57:14;;;;;;;;;;;;;;;;;;5082695;28;19912;-57
2022/02/05 17:59:40;;;;;;;;;;;;;;;;;;5075146;28;19923;-54
2022/02/05 18:02:08;;;;;;;;;;;;;;;;;;5079044;28;20078;-57
2022/02/05 18:04:34;;;;;;;;;;;;;;;;;;5074296;28;20327;-56
2022/02/05 18:07:05;;;;;;;;;;;;;;;;;;5071367;28;19908;-57
2022/02/05 18:12:06;;;;;;;;;;;;;;;;;;5072284;28;19919;-57
2022/02/05 18:17:04;;;;;;;;;;;;;;;;;;5072143;28;20094;-57
2022/02/05 18:19:30;;;;;;;;;;;;;;;;;;5070676;28;20442;-57
2022/02/05 18:21:56;;;;;;;;;;;;;;;;;;5072437;28;20335;-56
2022/02/05 18:24:22;;;;;;;;;;;;;;;;;;5071910;28;19908;-54
2022/02/05 18:26:49;;;;;;;;;;;;;;;;;;5072020;28;19905;-55
2022/02/05 18:29:15;;;;;;;;;;;;;;;;;;5071297;28;19909;-57
2022/02/05 18:31:41;;;;;;;;;;;;;;;;;;5073941;28;20289;-56
2022/02/05 18:34:07;;;;;;;;;;;;;;;;;;5071914;28;19916;-54
2022/02/05 18:36:33;;;;;;;;;;;;;;;;;;5072154;28;20329;-55
2022/02/05 18:38:59;;;;;;;;;;;;;;;;;;5071407;28;19908;-55
2022/02/05 18:41:27;;;;;;;;;;;;;;;;;;5072153;28;19958;-54
2022/02/05 18:43:56;;;;;;;;;;;;;;;;;;5071131;28;19911;-56
2022/02/05 18:46:22;;;;;;;;;;;;;;;;;;5071354;28;19967;-56
2022/02/05 18:48:47;;;;;;;;;;;;;;;;;;5070597;28;19951;-54
2022/02/05 18:51:13;;;;;;;;;;;;;;;;;;5071138;28;20628;-53
2022/02/05 18:53:39;;;;;;;;;;;;;;;;;;5086588;28;19904;-53
2022/02/05 18:56:05;;;;;;;;;;;;;;;;;;5071076;28;19933;-55
2022/02/05 18:58:31;;;;;;;;;;;;;;;;;;5079719;28;19912;-53
2022/02/05 19:12:31;;;;;;;;;;;;;;;;;;5071239;28;20377;-56
2022/02/05 19:20:27;;;;;;;;;;;;;;;;;;5075423;28;19915;-55
2022/02/05 19:22:53;;;;;;;;;;;;;;;;;;5070616;28;19908;-56
2022/02/05 19:25:19;;;;;;;;;;;;;;;;;;5070601;28;19959;-56
2022/02/05 19:27:44;;;;;;;;;;;;;;;;;;5070433;28;19950;-54
2022/02/05 19:30:10;;;;;;;;;;;;;;;;;;5070343;28;19948;-53
2022/02/05 19:32:36;;;;;;;;;;;;;;;;;;5070587;28;19938;-56
2022/02/05 19:35:02;;;;;;;;;;;;;;;;;;5070382;28;20365;-54
2022/02/05 19:37:28;;;;;;;;;;;;;;;;;;5070110;28;19916;-56
2022/02/05 19:39:54;;;;;;;;;;;;;;;;;;5069550;28;19909;-57
2022/02/05 19:42:23;;;;;;;;;;;;;;;;;;5070454;28;20049;-55
2022/02/05 19:44:52;;;;;;;;;;;;;;;;;;5069678;28;19939;-56
2022/02/05 19:47:28;;;;;;;;;;;;;;;;;;5070342;28;20341;-55
2022/02/05 19:49:54;;;;;;;;;;;;;;;;;;5069801;28;19904;-57
2022/02/05 19:52:20;;;;;;;;;;;;;;;;;;5071850;28;19919;-54
2022/02/05 19:54:46;;;;;;;;;;;;;;;;;;5093197;28;19904;-56
2022/02/05 19:57:12;;;;;;;;;;;;;;;;;;5076274;28;19911;-56
2022/02/05 19:59:38;;;;;;;;;;;;;;;;;;5075555;28;19909;-52
2022/02/05 20:02:05;;;;;;;;;;;;;;;;;;5070384;28;19919;-55
2022/02/05 20:04:51;;;;;;;;;;;;;;;;;;5071044;28;20008;-52
2022/02/05 20:07:21;;;;;;;;;;;;;;;;;;5069723;28;20402;-56
2022/02/05 20:09:47;;;;;;;;;;;;;;;;;;5069180;28;19931;-54
2022/02/05 20:12:13;;;;;;;;;;;;;;;;;;5080113;28;19908;-55
2022/02/05 20:14:39;;;;;;;;;;;;;;;;;;5068226;28;19908;-52
2022/02/05 20:17:04;;;;;;;;;;;;;;;;;;5070048;28;19915;-54
2022/02/05 20:19:32;;;;;;;;;;;;;;;;;;5068980;28;19912;-52